createdAt,value
2023-03-21T00:00:31.490Z,10.42
2023-03-21T00:04:22.305Z,10.32
2023-03-21T00:08:08.159Z,10.36
2023-03-21T00:13:13.253Z,10.36
2023-03-21T00:17:04.183Z,10.25
2023-03-21T00:25:26.418Z,10.13
2023-03-21T00:28:57.758Z,10.12
2023-03-21T00:32:31.011Z,10.14
2023-03-21T00:37:00.057Z,10.11
2023-03-21T00:41:20.970Z,10.09
2023-03-21T00:44:58.291Z,10.13
2023-03-21T00:48:49.418Z,10.13
2023-03-21T00:56:51.013Z,10.00
2023-03-21T01:04:43.323Z,9.93
2023-03-21T01:08:38.145Z,9.94
2023-03-21T01:14:24.908Z,10.02
2023-03-21T01:19:02.112Z,10.08
2023-03-21T01:22:36.560Z,9.91
2023-03-21T01:26:25.494Z,9.98
2023-03-21T01:30:20.271Z,9.74
2023-03-21T01:34:55.837Z,9.74
2023-03-21T01:39:49.264Z,9.65
2023-03-21T01:43:38.270Z,9.61
2023-03-21T01:48:00.409Z,9.58
2023-03-21T01:51:43.054Z,9.61
2023-03-21T01:55:51.311Z,9.67
2023-03-21T01:59:39.084Z,9.52
2023-03-21T02:03:35.967Z,9.52
2023-03-21T02:07:32.214Z,9.49
2023-03-21T02:11:54.663Z,9.46
2023-03-21T02:16:26.300Z,9.45
2023-03-21T02:20:33.076Z,9.42
2023-03-21T02:24:22.130Z,9.39
2023-03-21T02:28:11.039Z,9.42
2023-03-21T02:32:25.355Z,9.53
2023-03-21T02:36:29.705Z,9.46
2023-03-21T02:40:16.875Z,9.54
2023-03-21T02:44:27.890Z,9.56
2023-03-21T02:48:28.052Z,9.58
2023-03-21T02:56:12.474Z,9.62
2023-03-21T03:00:16.111Z,9.65
2023-03-21T03:04:10.120Z,9.57
2023-03-21T03:08:14.371Z,9.53
2023-03-21T03:15:03.787Z,9.55
2023-03-21T03:18:53.964Z,9.36
2023-03-21T03:22:46.777Z,9.34
2023-03-21T03:26:43.370Z,9.31
2023-03-21T03:30:32.317Z,9.43
2023-03-21T03:34:19.154Z,9.41
2023-03-21T03:38:46.166Z,9.36
2023-03-21T03:42:51.108Z,9.32
2023-03-21T03:47:22.905Z,9.36
2023-03-21T03:51:08.176Z,9.25
2023-03-21T03:55:11.157Z,9.21
2023-03-21T03:58:56.229Z,9.18
2023-03-21T04:03:02.900Z,9.13
2023-03-21T04:07:58.262Z,9.13
2023-03-21T04:12:02.134Z,9.07
2023-03-21T04:16:06.664Z,9.01
2023-03-21T04:19:49.277Z,9.07
2023-03-21T04:27:02.231Z,9.09
2023-03-21T04:31:00.755Z,9.16
2023-03-21T04:36:30.553Z,9.20
2023-03-21T04:40:25.907Z,9.19
2023-03-21T04:44:13.039Z,9.15
2023-03-21T04:48:06.228Z,9.20
2023-03-21T04:52:48.524Z,9.19
2023-03-21T05:01:21.094Z,9.07
2023-03-21T05:04:44.689Z,9.09
2023-03-21T05:12:25.582Z,9.15
2023-03-21T05:16:13.966Z,9.15
2023-03-21T05:24:56.058Z,9.03
2023-03-21T05:28:51.189Z,9.05
2023-03-21T05:36:40.136Z,9.05
2023-03-21T05:44:58.035Z,9.15
2023-03-21T05:54:36.443Z,9.09
2023-03-21T05:59:01.656Z,8.95
2023-03-21T06:02:46.350Z,8.96
2023-03-21T06:07:14.447Z,9.11
2023-03-21T06:11:17.592Z,9.33
2023-03-21T06:15:57.329Z,9.39
2023-03-21T06:20:25.827Z,9.45
2023-03-21T06:24:29.369Z,9.53
2023-03-21T06:28:30.119Z,9.62
2023-03-21T06:32:17.094Z,9.73
2023-03-21T06:36:21.991Z,9.80
2023-03-21T06:40:13.662Z,9.89
2023-03-21T06:44:05.199Z,10.02
2023-03-21T06:48:25.227Z,9.97
2023-03-21T06:53:36.462Z,9.90
2023-03-21T06:56:33.551Z,10.09
2023-03-21T07:00:26.236Z,10.23
2023-03-21T07:04:18.244Z,10.28
2023-03-21T07:08:11.436Z,10.23
2023-03-21T07:11:53.654Z,10.26
2023-03-21T07:15:47.003Z,10.53
2023-03-21T07:23:41.604Z,10.60
2023-03-21T07:28:10.425Z,10.67
2023-03-21T07:36:01.281Z,10.46
2023-03-21T07:43:49.078Z,10.49
2023-03-21T07:47:49.736Z,10.55
2023-03-21T07:52:04.977Z,10.68
2023-03-21T08:26:38.974Z,10.78
2023-03-21T08:42:57.963Z,10.89
2023-03-21T08:48:30.754Z,11.21
2023-03-21T09:03:57.854Z,11.41
2023-03-21T09:07:32.145Z,11.29
2023-03-21T09:11:59.407Z,11.33
2023-03-21T09:16:29.593Z,11.45
2023-03-21T09:20:25.763Z,11.58
2023-03-21T09:24:26.037Z,12.01
2023-03-21T09:28:27.453Z,12.28
2023-03-21T09:33:00.419Z,12.26
2023-03-21T09:45:57.210Z,12.76
2023-03-21T09:49:35.610Z,12.87
2023-03-21T09:58:15.844Z,12.84
2023-03-21T10:04:51.982Z,13.17
2023-03-21T10:11:15.012Z,13.86
2023-03-21T10:15:39.252Z,13.96
2023-03-21T10:19:25.641Z,14.01
2023-03-21T10:23:31.936Z,14.28
2023-03-21T10:28:03.620Z,14.39
2023-03-21T10:43:34.615Z,15.45
2023-03-21T10:48:04.402Z,15.45
2023-03-21T10:52:50.304Z,15.28
2023-03-21T10:56:29.779Z,15.73
2023-03-21T11:00:08.632Z,15.59
2023-03-21T11:04:04.970Z,15.49
2023-03-21T11:08:01.056Z,15.41
2023-03-21T11:11:52.931Z,15.51
2023-03-21T11:19:58.719Z,15.51
2023-03-21T11:23:41.491Z,15.43
2023-03-21T11:27:33.533Z,15.23
2023-03-21T11:31:22.783Z,15.11
2023-03-21T11:35:02.401Z,15.07
2023-03-21T11:39:00.858Z,15.29
2023-03-21T11:42:37.326Z,15.23
2023-03-21T11:46:25.850Z,15.54
2023-03-21T11:50:04.643Z,15.85
2023-03-21T11:54:11.173Z,15.59
2023-03-21T11:58:25.241Z,15.91
2023-03-21T12:02:56.005Z,16.16
2023-03-21T12:06:45.488Z,16.54
2023-03-21T12:10:49.809Z,16.59
2023-03-21T12:14:51.094Z,16.14
2023-03-21T12:19:04.985Z,16.52
2023-03-21T12:27:02.383Z,16.25
2023-03-21T12:36:20.209Z,15.78
2023-03-21T12:40:28.689Z,16.21
2023-03-21T12:44:05.136Z,15.88
2023-03-21T12:47:52.259Z,15.71
2023-03-21T12:55:57.760Z,15.55
2023-03-21T12:59:49.180Z,15.21
2023-03-21T13:03:44.497Z,14.93
2023-03-21T13:07:22.791Z,14.94
2023-03-21T13:11:14.938Z,14.86
2023-03-21T13:15:12.541Z,14.93
2023-03-21T13:19:18.550Z,14.89
2023-03-21T13:23:10.354Z,14.63
2023-03-21T13:26:59.654Z,14.60
2023-03-21T13:30:53.886Z,14.59
2023-03-21T13:34:43.051Z,14.56
2023-03-21T13:38:32.659Z,14.40
2023-03-21T13:42:03.502Z,14.45
2023-03-21T13:45:45.665Z,14.20
2023-03-21T13:49:33.469Z,14.11
2023-03-21T13:53:22.780Z,14.13
2023-03-21T13:57:27.370Z,14.12
2023-03-21T14:01:22.914Z,13.99
2023-03-21T14:05:12.254Z,13.97
2023-03-21T14:09:06.812Z,14.08
2023-03-21T14:12:52.951Z,14.02
2023-03-21T14:16:45.165Z,14.14
2023-03-21T14:20:35.894Z,14.25
2023-03-21T14:24:12.866Z,14.26
2023-03-21T14:28:04.874Z,14.34
2023-03-21T14:31:43.276Z,14.24
2023-03-21T14:35:33.564Z,14.29
2023-03-21T14:39:26.770Z,14.27
2023-03-21T14:43:06.503Z,14.43
2023-03-21T14:47:07.814Z,14.41
2023-03-21T14:50:57.001Z,14.52
2023-03-21T14:54:47.863Z,14.43
2023-03-21T14:58:37.048Z,14.43
2023-03-21T15:02:26.348Z,14.33
2023-03-21T15:06:15.689Z,14.27
2023-03-21T15:09:57.761Z,14.17
2023-03-21T15:13:54.273Z,13.99
2023-03-21T15:17:06.064Z,13.78
2023-03-21T15:20:53.935Z,13.70
2023-03-21T15:24:51.308Z,13.78
2023-03-21T15:28:40.447Z,13.68
2023-03-21T15:32:26.453Z,13.67
2023-03-21T15:36:11.935Z,13.67
2023-03-21T15:39:53.352Z,13.72
2023-03-21T15:43:23.485Z,13.74
2023-03-21T15:47:20.166Z,13.54
2023-03-21T15:50:58.872Z,13.68
2023-03-21T15:54:48.507Z,13.60
2023-03-21T15:58:38.024Z,13.58
2023-03-21T16:02:02.169Z,13.49
2023-03-21T16:05:46.962Z,13.29
2023-03-21T16:09:28.824Z,13.02
2023-03-21T16:13:12.347Z,13.03
2023-03-21T16:16:55.729Z,12.88
2023-03-21T16:20:44.999Z,12.84
2023-03-21T16:24:29.753Z,12.82
2023-03-21T16:28:26.203Z,12.80
2023-03-21T16:32:15.681Z,12.76
2023-03-21T16:36:09.333Z,12.68
2023-03-21T16:39:58.752Z,12.67
2023-03-21T16:43:37.944Z,12.62
2023-03-21T16:47:27.392Z,12.57
2023-03-21T16:51:19.708Z,12.49
2023-03-21T16:59:19.218Z,12.64
2023-03-21T17:03:52.157Z,12.50
2023-03-21T17:12:50.887Z,12.27
2023-03-21T17:17:20.854Z,12.30
2023-03-21T17:26:25.143Z,12.18
2023-03-21T17:30:55.355Z,12.21
2023-03-21T17:35:25.222Z,12.19
2023-03-21T17:40:00.364Z,12.12
2023-03-21T17:44:31.687Z,12.02
2023-03-21T17:49:01.453Z,11.98
2023-03-21T17:53:32.732Z,11.87
2023-03-21T17:58:03.508Z,11.84
2023-03-21T18:02:33.470Z,11.82
2023-03-21T18:07:03.576Z,11.82
2023-03-21T18:11:38.823Z,11.73
2023-03-21T18:16:08.687Z,11.56
2023-03-21T18:20:52.165Z,11.45
2023-03-21T18:25:10.992Z,11.50
2023-03-21T18:34:15.389Z,11.45
2023-03-21T18:38:45.279Z,11.54
2023-03-21T18:43:59.360Z,11.63
2023-03-21T18:47:51.338Z,11.70
2023-03-21T18:52:23.095Z,11.71
2023-03-21T18:57:33.698Z,11.65
2023-03-21T19:01:25.582Z,11.54
2023-03-21T19:05:58.911Z,11.41
2023-03-21T19:10:29.334Z,11.47
2023-03-21T19:15:02.444Z,11.47
2023-03-21T19:19:11.196Z,11.44
2023-03-21T19:22:55.166Z,11.41
2023-03-21T19:26:25.352Z,11.50
2023-03-21T19:30:16.224Z,11.48
2023-03-21T19:33:20.588Z,11.39
2023-03-21T19:40:44.838Z,11.21
2023-03-21T19:44:24.237Z,11.14
2023-03-21T19:47:55.841Z,11.05
2023-03-21T19:51:34.452Z,11.01
2023-03-21T19:54:43.088Z,10.97
2023-03-21T19:58:22.349Z,10.82
2023-03-21T20:01:56.856Z,10.69
2023-03-21T20:05:50.715Z,10.56
2023-03-21T20:09:51.173Z,10.40
2023-03-21T20:13:12.199Z,10.31
2023-03-21T20:15:54.968Z,10.22
2023-03-21T20:19:45.633Z,10.25
2023-03-21T20:23:35.174Z,10.31
2023-03-21T20:27:24.434Z,10.26
2023-03-21T20:31:01.145Z,10.13
2023-03-21T20:34:55.665Z,10.10
2023-03-21T20:38:55.312Z,10.08
2023-03-21T20:42:44.729Z,10.07
2023-03-21T20:46:35.860Z,10.12
2023-03-21T20:50:08.123Z,10.15
2023-03-21T20:54:00.727Z,10.12
2023-03-21T20:57:30.980Z,10.12
2023-03-21T21:01:30.976Z,10.08
2023-03-21T21:05:33.850Z,10.10
2023-03-21T21:09:24.320Z,10.05
2023-03-21T21:13:16.805Z,10.00
2023-03-21T21:17:24.605Z,10.13
2023-03-21T21:21:17.176Z,10.26
2023-03-21T21:25:10.669Z,10.29
2023-03-21T21:28:51.385Z,10.30
2023-03-21T21:32:30.508Z,10.25
2023-03-21T21:36:19.609Z,10.21
2023-03-21T21:40:07.936Z,10.14
2023-03-21T21:43:45.782Z,10.11
2023-03-21T21:47:34.777Z,10.11
2023-03-21T21:51:23.697Z,10.06
2023-03-21T21:55:12.644Z,10.08
2023-03-21T21:59:11.290Z,10.08
2023-03-21T22:03:00.339Z,10.08
2023-03-21T22:06:49.446Z,10.11
2023-03-21T22:10:29.338Z,10.09
2023-03-21T22:14:19.070Z,10.28
2023-03-21T22:18:08.319Z,10.15
2023-03-21T22:21:57.361Z,10.15
2023-03-21T22:25:46.304Z,10.14
2023-03-21T22:29:35.304Z,10.09
2023-03-21T22:33:24.197Z,10.10
2023-03-21T22:37:05.710Z,10.17
2023-03-21T22:40:54.226Z,10.29
2023-03-21T22:44:43.146Z,10.37
2023-03-21T22:48:22.031Z,10.37
2023-03-21T22:52:10.996Z,10.34
2023-03-21T22:55:59.855Z,10.27
2023-03-21T23:00:00.661Z,10.20
2023-03-21T23:03:54.410Z,10.08
2023-03-21T23:07:43.372Z,10.18
2023-03-21T23:11:32.156Z,10.30
2023-03-21T23:15:02.345Z,10.21
2023-03-21T23:18:51.860Z,10.17
2023-03-21T23:22:40.763Z,10.20
2023-03-21T23:26:29.628Z,10.30
2023-03-21T23:30:18.557Z,10.42
2023-03-21T23:34:07.401Z,10.46
2023-03-21T23:37:56.283Z,10.55
2023-03-21T23:45:39.320Z,10.49
2023-03-21T23:50:05.694Z,10.37
2023-03-21T23:54:35.610Z,10.24
2023-03-21T23:59:06.418Z,10.28
